sensor_id;sensor_type;location;lat;lon;timestamp;pressure;altitude;pressure_sealevel;temperature;humidity
76590;BME280;65471;55.908;37.880;2023-03-31T00:02:04;99144.41;;;0.38;79.97
76590;BME280;65471;55.908;37.880;2023-03-31T00:04:40;99147.91;;;0.39;80.12
76590;BME280;65471;55.908;37.880;2023-03-31T00:07:13;99153.22;;;0.39;79.95
76590;BME280;65471;55.908;37.880;2023-03-31T00:09:41;99153.03;;;0.40;80.35
76590;BME280;65471;55.908;37.880;2023-03-31T00:12:12;99147.25;;;0.37;80.64
76590;BME280;65471;55.908;37.880;2023-03-31T00:14:40;99159.38;;;0.39;80.54
76590;BME280;65471;55.908;37.880;2023-03-31T00:17:22;99158.38;;;0.40;80.33
76590;BME280;65471;55.908;37.880;2023-03-31T00:19:49;99158.38;;;0.40;80.29
76590;BME280;65471;55.908;37.880;2023-03-31T00:22:16;99161.22;;;0.39;80.16
76590;BME280;65471;55.908;37.880;2023-03-31T00:24:44;99163.69;;;0.40;80.62
76590;BME280;65471;55.908;37.880;2023-03-31T00:27:11;99150.38;;;0.40;80.43
76590;BME280;65471;55.908;37.880;2023-03-31T00:29:38;99150.91;;;0.36;80.46
76590;BME280;65471;55.908;37.880;2023-03-31T00:32:09;99156.41;;;0.34;80.26
76590;BME280;65471;55.908;37.880;2023-03-31T00:34:36;99157.63;;;0.31;80.29
76590;BME280;65471;55.908;37.880;2023-03-31T00:37:03;99142.66;;;0.30;80.45
76590;BME280;65471;55.908;37.880;2023-03-31T00:39:30;99149.97;;;0.28;80.19
76590;BME280;65471;55.908;37.880;2023-03-31T00:42:02;99146.69;;;0.26;80.28
76590;BME280;65471;55.908;37.880;2023-03-31T00:44:30;99140.06;;;0.22;80.26
76590;BME280;65471;55.908;37.880;2023-03-31T00:47:12;99138.78;;;0.18;80.41
76590;BME280;65471;55.908;37.880;2023-03-31T00:49:41;99142.09;;;0.20;80.69
76590;BME280;65471;55.908;37.880;2023-03-31T00:52:23;99147.59;;;0.19;80.76
76590;BME280;65471;55.908;37.880;2023-03-31T00:54:56;99142.91;;;0.21;80.24
76590;BME280;65471;55.908;37.880;2023-03-31T00:57:24;99144.56;;;0.22;80.61
76590;BME280;65471;55.908;37.880;2023-03-31T01:00:04;99139.25;;;0.22;80.57
76590;BME280;65471;55.908;37.880;2023-03-31T01:02:56;99142.91;;;0.21;81.25
76590;BME280;65471;55.908;37.880;2023-03-31T01:05:28;99137.59;;;0.21;81.21
76590;BME280;65471;55.908;37.880;2023-03-31T01:07:58;99137.78;;;0.19;80.66
76590;BME280;65471;55.908;37.880;2023-03-31T01:10:26;99133.00;;;0.14;80.38
76590;BME280;65471;55.908;37.880;2023-03-31T01:12:54;99126.84;;;0.14;80.61
76590;BME280;65471;55.908;37.880;2023-03-31T01:15:21;99125.03;;;0.14;80.88
76590;BME280;65471;55.908;37.880;2023-03-31T01:17:48;99114.41;;;0.14;80.50
76590;BME280;65471;55.908;37.880;2023-03-31T01:20:20;99116.03;;;0.15;80.96
76590;BME280;65471;55.908;37.880;2023-03-31T01:45:00;99104.97;;;0.12;81.15
76590;BME280;65471;55.908;37.880;2023-03-31T01:47:36;99107.78;;;0.10;81.40
76590;BME280;65471;55.908;37.880;2023-03-31T01:52:56;99099.16;;;0.08;81.59
76590;BME280;65471;55.908;37.880;2023-03-31T01:58:06;99099.81;;;0.10;81.90
76590;BME280;65471;55.908;37.880;2023-03-31T02:00:41;99098.97;;;0.10;82.07
76590;BME280;65471;55.908;37.880;2023-03-31T02:05:44;99092.38;;;0.06;81.27
76590;BME280;65471;55.908;37.880;2023-03-31T02:08:21;99095.69;;;0.08;81.18
76590;BME280;65471;55.908;37.880;2023-03-31T02:10:51;99094.69;;;0.09;81.61
76590;BME280;65471;55.908;37.880;2023-03-31T02:13:19;99097.63;;;0.14;82.23
76590;BME280;65471;55.908;37.880;2023-03-31T02:15:53;99084.31;;;0.14;81.87
76590;BME280;65471;55.908;37.880;2023-03-31T02:18:25;99085.34;;;0.13;81.96
76590;BME280;65471;55.908;37.880;2023-03-31T02:20:54;99085.50;;;0.11;81.87
76590;BME280;65471;55.908;37.880;2023-03-31T02:23:25;99095.69;;;0.08;81.58
76590;BME280;65471;55.908;37.880;2023-03-31T02:26:02;99086.25;;;0.05;81.12
76590;BME280;65471;55.908;37.880;2023-03-31T02:28:31;99083.13;;;0.02;81.59
76590;BME280;65471;55.908;37.880;2023-03-31T02:31:27;99088.44;;;0.02;82.08
76590;BME280;65471;55.908;37.880;2023-03-31T02:33:54;99095.22;;;0.04;81.83
76590;BME280;65471;55.908;37.880;2023-03-31T02:36:22;99100.34;;;0.06;82.18
76590;BME280;65471;55.908;37.880;2023-03-31T02:39:03;99100.00;;;0.09;82.10
76590;BME280;65471;55.908;37.880;2023-03-31T02:41:32;99105.13;;;0.10;81.65
76590;BME280;65471;55.908;37.880;2023-03-31T02:43:59;99108.97;;;0.08;81.98
76590;BME280;65471;55.908;37.880;2023-03-31T02:46:27;99104.66;;;0.07;82.06
76590;BME280;65471;55.908;37.880;2023-03-31T02:48:57;99103.00;;;0.06;81.63
76590;BME280;65471;55.908;37.880;2023-03-31T03:00:02;99118.06;;;0.13;81.87
76590;BME280;65471;55.908;37.880;2023-03-31T03:11:24;99105.09;;;-0.05;81.78
76590;BME280;65471;55.908;37.880;2023-03-31T03:13:59;99105.09;;;-0.05;82.23
76590;BME280;65471;55.908;37.880;2023-03-31T03:16:36;99106.56;;;-0.02;81.91
76590;BME280;65471;55.908;37.880;2023-03-31T03:19:06;99112.69;;;-0.02;81.88
76590;BME280;65471;55.908;37.880;2023-03-31T03:21:33;99118.00;;;-0.02;82.25
76590;BME280;65471;55.908;37.880;2023-03-31T03:24:00;99120.34;;;0.02;81.49
76590;BME280;65471;55.908;37.880;2023-03-31T03:26:27;99110.16;;;0.05;81.83
76590;BME280;65471;55.908;37.880;2023-03-31T03:28:54;99101.00;;;0.08;81.93
76590;BME280;65471;55.908;37.880;2023-03-31T03:31:22;99087.22;;;0.04;81.60
76590;BME280;65471;55.908;37.880;2023-03-31T03:33:52;99080.47;;;0.02;81.93
76590;BME280;65471;55.908;37.880;2023-03-31T03:36:19;99074.31;;;0.01;82.08
76590;BME280;65471;55.908;37.880;2023-03-31T03:38:46;99073.50;;;0.01;81.29
76590;BME280;65471;55.908;37.880;2023-03-31T03:41:13;99069.25;;;-0.09;81.64
76590;BME280;65471;55.908;37.880;2023-03-31T03:43:39;99059.81;;;-0.11;81.72
76590;BME280;65471;55.908;37.880;2023-03-31T03:46:06;99059.34;;;-0.15;82.16
76590;BME280;65471;55.908;37.880;2023-03-31T03:48:34;99052.00;;;-0.13;81.72
76590;BME280;65471;55.908;37.880;2023-03-31T03:51:00;99052.38;;;-0.16;81.57
76590;BME280;65471;55.908;37.880;2023-03-31T03:53:27;99039.94;;;-0.15;81.85
76590;BME280;65471;55.908;37.880;2023-03-31T03:55:54;99032.41;;;-0.12;82.11
76590;BME280;65471;55.908;37.880;2023-03-31T03:58:21;99027.47;;;-0.15;81.50
76590;BME280;65471;55.908;37.880;2023-03-31T04:00:48;99032.78;;;-0.15;81.97
76590;BME280;65471;55.908;37.880;2023-03-31T04:03:15;99041.38;;;-0.13;82.43
76590;BME280;65471;55.908;37.880;2023-03-31T04:05:42;99038.38;;;-0.10;81.94
76590;BME280;65471;55.908;37.880;2023-03-31T04:08:09;99039.03;;;-0.08;82.11
76590;BME280;65471;55.908;37.880;2023-03-31T04:10:37;99043.34;;;-0.07;81.94
76590;BME280;65471;55.908;37.880;2023-03-31T04:13:03;99055.16;;;-0.09;82.29
76590;BME280;65471;55.908;37.880;2023-03-31T04:15:30;99049.66;;;-0.08;81.87
76590;BME280;65471;55.908;37.880;2023-03-31T04:17:57;99043.88;;;-0.11;81.89
76590;BME280;65471;55.908;37.880;2023-03-31T04:20:24;99036.44;;;-0.16;81.93
76590;BME280;65471;55.908;37.880;2023-03-31T04:22:56;99035.63;;;-0.16;82.21
76590;BME280;65471;55.908;37.880;2023-03-31T04:25:23;99041.38;;;-0.13;82.52
76590;BME280;65471;55.908;37.880;2023-03-31T04:27:50;99041.03;;;-0.10;82.14
76590;BME280;65471;55.908;37.880;2023-03-31T04:30:22;99043.69;;;-0.10;82.42
76590;BME280;65471;55.908;37.880;2023-03-31T04:32:55;99038.22;;;-0.08;82.58
76590;BME280;65471;55.908;37.880;2023-03-31T04:35:25;99037.72;;;-0.12;82.40
76590;BME280;65471;55.908;37.880;2023-03-31T04:37:53;99025.63;;;-0.14;82.47
76590;BME280;65471;55.908;37.880;2023-03-31T04:40:25;99036.72;;;-0.11;82.12
76590;BME280;65471;55.908;37.880;2023-03-31T04:42:51;99025.09;;;-0.10;82.22
76590;BME280;65471;55.908;37.880;2023-03-31T04:45:21;99020.13;;;-0.13;82.60
76590;BME280;65471;55.908;37.880;2023-03-31T04:47:48;99030.41;;;-0.10;83.04
76590;BME280;65471;55.908;37.880;2023-03-31T04:50:15;99022.44;;;-0.10;82.75
76590;BME280;65471;55.908;37.880;2023-03-31T04:52:43;99022.78;;;-0.13;82.35
76590;BME280;65471;55.908;37.880;2023-03-31T04:55:10;99022.88;;;-0.06;82.52
76590;BME280;65471;55.908;37.880;2023-03-31T04:57:38;99026.03;;;-0.03;82.35
76590;BME280;65471;55.908;37.880;2023-03-31T05:00:05;99024.38;;;-0.04;82.42
76590;BME280;65471;55.908;37.880;2023-03-31T05:02:33;99030.69;;;-0.05;82.08
76590;BME280;65471;55.908;37.880;2023-03-31T05:05:00;99031.16;;;-0.01;82.17
76590;BME280;65471;55.908;37.880;2023-03-31T05:07:28;99024.84;;;0.00;82.27
76590;BME280;65471;55.908;37.880;2023-03-31T05:09:55;99030.97;;;0.01;82.59
76590;BME280;65471;55.908;37.880;2023-03-31T05:12:22;99037.75;;;0.03;82.83
76590;BME280;65471;55.908;37.880;2023-03-31T05:14:48;99026.28;;;0.03;82.06
76590;BME280;65471;55.908;37.880;2023-03-31T05:17:15;99028.56;;;0.06;82.12
76590;BME280;65471;55.908;37.880;2023-03-31T05:19:43;99030.91;;;0.09;82.06
76590;BME280;65471;55.908;37.880;2023-03-31T05:22:10;99029.53;;;0.13;82.44
76590;BME280;65471;55.908;37.880;2023-03-31T05:24:37;99042.25;;;0.17;82.30
76590;BME280;65471;55.908;37.880;2023-03-31T05:27:03;99041.09;;;0.20;82.55
76590;BME280;65471;55.908;37.880;2023-03-31T05:29:30;99030.44;;;0.20;82.42
76590;BME280;65471;55.908;37.880;2023-03-31T05:31:57;99036.41;;;0.22;82.61
76590;BME280;65471;55.908;37.880;2023-03-31T05:34:24;99026.56;;;0.23;81.98
76590;BME280;65471;55.908;37.880;2023-03-31T05:36:51;99017.78;;;0.22;82.34
76590;BME280;65471;55.908;37.880;2023-03-31T05:39:20;99005.78;;;0.26;82.07
76590;BME280;65471;55.908;37.880;2023-03-31T05:41:47;98999.72;;;0.32;82.07
76590;BME280;65471;55.908;37.880;2023-03-31T05:44:14;99005.31;;;0.38;81.70
76590;BME280;65471;55.908;37.880;2023-03-31T05:46:41;98999.63;;;0.41;82.38
76590;BME280;65471;55.908;37.880;2023-03-31T05:49:08;98997.59;;;0.43;81.97
76590;BME280;65471;55.908;37.880;2023-03-31T05:51:36;99003.47;;;0.38;82.00
76590;BME280;65471;55.908;37.880;2023-03-31T05:54:03;99003.28;;;0.40;82.33
76590;BME280;65471;55.908;37.880;2023-03-31T05:56:32;98997.59;;;0.43;82.34
76590;BME280;65471;55.908;37.880;2023-03-31T05:58:59;98989.88;;;0.48;81.57
76590;BME280;65471;55.908;37.880;2023-03-31T06:01:27;98980.53;;;0.52;82.25
76590;BME280;65471;55.908;37.880;2023-03-31T06:03:55;98974.63;;;0.57;81.75
76590;BME280;65471;55.908;37.880;2023-03-31T06:06:23;98982.25;;;0.60;82.00
76590;BME280;65471;55.908;37.880;2023-03-31T06:08:51;98977.59;;;0.62;81.74
76590;BME280;65471;55.908;37.880;2023-03-31T06:11:19;98980.88;;;0.64;81.98
76590;BME280;65471;55.908;37.880;2023-03-31T06:13:47;98970.88;;;0.66;81.60
76590;BME280;65471;55.908;37.880;2023-03-31T06:16:15;98959.66;;;0.71;81.62
76590;BME280;65471;55.908;37.880;2023-03-31T06:18:43;98964.22;;;0.77;81.23
76590;BME280;65471;55.908;37.880;2023-03-31T06:21:12;98960.19;;;0.81;81.52
76590;BME280;65471;55.908;37.880;2023-03-31T06:23:39;98972.78;;;0.94;81.62
76590;BME280;65471;55.908;37.880;2023-03-31T06:26:07;98972.06;;;1.00;81.65
76590;BME280;65471;55.908;37.880;2023-03-31T06:28:35;98986.63;;;1.04;80.87
76590;BME280;65471;55.908;37.880;2023-03-31T06:31:09;98981.66;;;1.01;81.22
76590;BME280;65471;55.908;37.880;2023-03-31T06:33:39;98994.16;;;1.00;81.12
76590;BME280;65471;55.908;37.880;2023-03-31T06:36:07;98988.84;;;1.00;80.76
76590;BME280;65471;55.908;37.880;2023-03-31T06:38:35;98981.63;;;0.94;81.49
76590;BME280;65471;55.908;37.880;2023-03-31T06:41:08;98978.97;;;0.94;81.26
76590;BME280;65471;55.908;37.880;2023-03-31T06:43:35;98979.31;;;0.91;80.75
76590;BME280;65471;55.908;37.880;2023-03-31T06:46:03;98986.94;;;0.94;80.59
76590;BME280;65471;55.908;37.880;2023-03-31T06:48:30;98968.13;;;0.96;81.22
76590;BME280;65471;55.908;37.880;2023-03-31T06:51:01;98974.66;;;0.93;81.18
76590;BME280;65471;55.908;37.880;2023-03-31T06:53:28;98970.78;;;0.96;80.63
76590;BME280;65471;55.908;37.880;2023-03-31T06:55:55;98980.47;;;1.03;80.51
76590;BME280;65471;55.908;37.880;2023-03-31T06:58:22;98980.75;;;1.09;81.41
76590;BME280;65471;55.908;37.880;2023-03-31T07:00:49;98990.56;;;1.08;80.98
76590;BME280;65471;55.908;37.880;2023-03-31T07:03:16;98977.44;;;1.07;80.91
76590;BME280;65471;55.908;37.880;2023-03-31T07:05:53;98963.31;;;1.06;80.67
76590;BME280;65471;55.908;37.880;2023-03-31T07:08:20;98961.91;;;1.10;80.83
76590;BME280;65471;55.908;37.880;2023-03-31T07:10:51;98967.03;;;1.12;80.75
76590;BME280;65471;55.908;37.880;2023-03-31T07:13:19;98967.03;;;1.12;80.55
76590;BME280;65471;55.908;37.880;2023-03-31T07:15:46;98961.72;;;1.12;80.88
76590;BME280;65471;55.908;37.880;2023-03-31T07:18:15;98962.34;;;1.14;80.76
76590;BME280;65471;55.908;37.880;2023-03-31T07:20:42;98968.50;;;1.14;80.46
76590;BME280;65471;55.908;37.880;2023-03-31T07:23:09;98961.16;;;1.16;80.57
76590;BME280;65471;55.908;37.880;2023-03-31T07:25:36;98955.25;;;1.21;80.62
76590;BME280;65471;55.908;37.880;2023-03-31T07:28:04;98967.53;;;1.22;79.96
76590;BME280;65471;55.908;37.880;2023-03-31T07:30:32;98961.41;;;1.22;79.83
76590;BME280;65471;55.908;37.880;2023-03-31T07:33:00;98959.88;;;1.12;80.08
76590;BME280;65471;55.908;37.880;2023-03-31T07:35:28;98958.25;;;1.11;80.64
76590;BME280;65471;55.908;37.880;2023-03-31T07:37:56;98956.00;;;1.15;80.12
76590;BME280;65471;55.908;37.880;2023-03-31T07:40:26;98949.69;;;1.16;80.13
76590;BME280;65471;55.908;37.880;2023-03-31T07:42:53;98941.50;;;1.17;80.14
76590;BME280;65471;55.908;37.880;2023-03-31T07:45:23;98952.22;;;1.24;80.29
76590;BME280;65471;55.908;37.880;2023-03-31T07:47:50;98952.63;;;1.28;80.09
76590;BME280;65471;55.908;37.880;2023-03-31T07:50:19;98959.25;;;1.32;80.20
76590;BME280;65471;55.908;37.880;2023-03-31T07:52:46;98958.41;;;1.31;79.64
76590;BME280;65471;55.908;37.880;2023-03-31T07:55:14;98955.75;;;1.31;79.69
76590;BME280;65471;55.908;37.880;2023-03-31T07:57:41;98951.06;;;1.33;80.18
76590;BME280;65471;55.908;37.880;2023-03-31T08:00:09;98959.03;;;1.33;80.03
76590;BME280;65471;55.908;37.880;2023-03-31T08:02:39;98956.38;;;1.33;79.55
76590;BME280;65471;55.908;37.880;2023-03-31T08:05:10;98952.31;;;1.37;79.66
76590;BME280;65471;55.908;37.880;2023-03-31T08:07:39;98948.66;;;1.38;79.61
76590;BME280;65471;55.908;37.880;2023-03-31T08:10:10;98940.00;;;1.36;79.68
76590;BME280;65471;55.908;37.880;2023-03-31T08:12:38;98931.47;;;1.41;79.67
76590;BME280;65471;55.908;37.880;2023-03-31T08:15:06;98931.50;;;1.48;79.43
76590;BME280;65471;55.908;37.880;2023-03-31T08:17:33;98942.41;;;1.53;79.06
76590;BME280;65471;55.908;37.880;2023-03-31T08:20:00;98935.88;;;1.55;79.08
76590;BME280;65471;55.908;37.880;2023-03-31T08:22:32;98935.47;;;1.59;78.78
76590;BME280;65471;55.908;37.880;2023-03-31T08:24:59;98920.75;;;1.63;79.39
76590;BME280;65471;55.908;37.880;2023-03-31T08:27:26;98922.00;;;1.67;79.46
76590;BME280;65471;55.908;37.880;2023-03-31T08:29:53;98932.06;;;1.71;78.92
76590;BME280;65471;55.908;37.880;2023-03-31T08:32:23;98914.25;;;1.72;78.61
76590;BME280;65471;55.908;37.880;2023-03-31T08:34:50;98896.44;;;1.72;78.59
76590;BME280;65471;55.908;37.880;2023-03-31T08:37:17;98902.63;;;1.80;78.26
76590;BME280;65471;55.908;37.880;2023-03-31T08:39:44;98898.50;;;1.84;78.50
76590;BME280;65471;55.908;37.880;2023-03-31T08:42:34;98894.44;;;1.88;78.52
76590;BME280;65471;55.908;37.880;2023-03-31T08:47:33;98890.34;;;1.92;78.44
76590;BME280;65471;55.908;37.880;2023-03-31T08:50:07;98879.91;;;1.90;77.99
76590;BME280;65471;55.908;37.880;2023-03-31T08:52:44;98872.75;;;1.91;78.25
76590;BME280;65471;55.908;37.880;2023-03-31T08:55:23;98864.34;;;1.94;78.38
76590;BME280;65471;55.908;37.880;2023-03-31T09:00:50;98881.19;;;2.01;78.22
76590;BME280;65471;55.908;37.880;2023-03-31T09:03:29;98868.25;;;1.98;78.46
76590;BME280;65471;55.908;37.880;2023-03-31T09:06:10;98870.28;;;1.96;78.51
76590;BME280;65471;55.908;37.880;2023-03-31T09:08:41;98874.59;;;1.97;78.12
76590;BME280;65471;55.908;37.880;2023-03-31T09:16:12;98869.88;;;1.99;78.70
76590;BME280;65471;55.908;37.880;2023-03-31T09:18:42;98871.94;;;1.97;78.29
76590;BME280;65471;55.908;37.880;2023-03-31T09:21:18;98860.47;;;1.97;78.64
76590;BME280;65471;55.908;37.880;2023-03-31T09:24:15;98845.69;;;1.94;78.14
76590;BME280;65471;55.908;37.880;2023-03-31T09:26:46;98853.69;;;1.94;78.11
76590;BME280;65471;55.908;37.880;2023-03-31T09:29:45;98854.69;;;1.93;78.83
76590;BME280;65471;55.908;37.880;2023-03-31T09:32:19;98856.34;;;1.94;78.07
76590;BME280;65471;55.908;37.880;2023-03-31T09:34:52;98845.69;;;1.94;78.17
76590;BME280;65471;55.908;37.880;2023-03-31T09:37:27;98843.00;;;1.94;78.55
76590;BME280;65471;55.908;37.880;2023-03-31T09:39:58;98842.38;;;1.92;78.26
76590;BME280;65471;55.908;37.880;2023-03-31T09:42:26;98835.44;;;1.98;78.11
76590;BME280;65471;55.908;37.880;2023-03-31T09:44:52;98821.31;;;2.04;78.24
76590;BME280;65471;55.908;37.880;2023-03-31T09:47:32;98825.41;;;2.06;77.93
76590;BME280;65471;55.908;37.880;2023-03-31T09:50:06;98823.97;;;2.11;77.85
76590;BME280;65471;55.908;37.880;2023-03-31T09:52:39;98821.13;;;2.12;77.59
76590;BME280;65471;55.908;37.880;2023-03-31T09:55:20;98825.03;;;2.16;78.76
76590;BME280;65471;55.908;37.880;2023-03-31T09:58:11;98821.97;;;2.19;78.31
76590;BME280;65471;55.908;37.880;2023-03-31T10:00:54;98804.13;;;2.20;78.25
76590;BME280;65471;55.908;37.880;2023-03-31T10:03:23;98812.34;;;2.18;78.10
76590;BME280;65471;55.908;37.880;2023-03-31T10:05:52;98814.16;;;2.18;78.14
76590;BME280;65471;55.908;37.880;2023-03-31T10:08:26;98805.16;;;2.19;77.75
76590;BME280;65471;55.908;37.880;2023-03-31T10:11:05;98808.63;;;2.19;78.55
76590;BME280;65471;55.908;37.880;2023-03-31T10:16:11;98809.88;;;2.17;78.04
76590;BME280;65471;55.908;37.880;2023-03-31T10:18:41;98803.69;;;2.16;77.62
76590;BME280;65471;55.908;37.880;2023-03-31T10:21:20;98798.97;;;2.12;78.35
76590;BME280;65471;55.908;37.880;2023-03-31T10:23:49;98802.25;;;2.14;78.23
76590;BME280;65471;55.908;37.880;2023-03-31T10:26:26;98794.25;;;2.14;77.86
76590;BME280;65471;55.908;37.880;2023-03-31T10:28:54;98795.28;;;2.13;78.10
76590;BME280;65471;55.908;37.880;2023-03-31T10:31:24;98791.78;;;2.12;78.02
76590;BME280;65471;55.908;37.880;2023-03-31T10:33:52;98778.44;;;2.12;77.95
76590;BME280;65471;55.908;37.880;2023-03-31T10:36:25;98780.91;;;2.14;78.54
76590;BME280;65471;55.908;37.880;2023-03-31T10:38:53;98779.50;;;2.11;77.67
76590;BME280;65471;55.908;37.880;2023-03-31T10:41:23;98777.66;;;2.12;78.01
76590;BME280;65471;55.908;37.880;2023-03-31T10:43:53;98787.50;;;2.11;77.88
76590;BME280;65471;55.908;37.880;2023-03-31T10:46:48;98775.19;;;2.10;78.68
76590;BME280;65471;55.908;37.880;2023-03-31T10:51:52;98765.34;;;2.04;78.66
76590;BME280;65471;55.908;37.880;2023-03-31T10:54:20;98771.47;;;2.04;78.13
76590;BME280;65471;55.908;37.880;2023-03-31T10:56:50;98766.53;;;2.08;78.85
76590;BME280;65471;55.908;37.880;2023-03-31T10:59:55;98770.66;;;2.11;78.39
76590;BME280;65471;55.908;37.880;2023-03-31T11:05:13;98759.38;;;2.09;79.00
76590;BME280;65471;55.908;37.880;2023-03-31T11:10:36;98753.22;;;2.08;78.87
76590;BME280;65471;55.908;37.880;2023-03-31T11:21:15;98739.47;;;2.04;79.89
76590;BME280;65471;55.908;37.880;2023-03-31T11:32:22;98737.41;;;2.00;80.26
76590;BME280;65471;55.908;37.880;2023-03-31T11:35:02;98731.25;;;1.99;80.20
76590;BME280;65471;55.908;37.880;2023-03-31T11:40:34;98718.97;;;1.98;81.11
76590;BME280;65471;55.908;37.880;2023-03-31T11:45:44;98702.97;;;1.98;81.27
76590;BME280;65471;55.908;37.880;2023-03-31T11:48:19;98709.72;;;2.01;81.65
76590;BME280;65471;55.908;37.880;2023-03-31T11:50:48;98709.72;;;2.01;81.67
76590;BME280;65471;55.908;37.880;2023-03-31T11:53:18;98706.25;;;2.00;80.95
76590;BME280;65471;55.908;37.880;2023-03-31T11:55:52;98704.59;;;1.99;81.77
76590;BME280;65471;55.908;37.880;2023-03-31T11:58:25;98699.25;;;1.99;81.51
76590;BME280;65471;55.908;37.880;2023-03-31T12:01:45;98698.25;;;2.00;81.78
76590;BME280;65471;55.908;37.880;2023-03-31T12:04:08;98695.56;;;2.00;81.66
76590;BME280;65471;55.908;37.880;2023-03-31T12:06:40;98700.09;;;2.00;81.44
76590;BME280;65471;55.908;37.880;2023-03-31T12:09:26;98695.56;;;2.00;82.28
76590;BME280;65471;55.908;37.880;2023-03-31T12:12:02;98686.78;;;2.00;81.96
76590;BME280;65471;55.908;37.880;2023-03-31T12:14:38;98686.78;;;2.00;81.77
76590;BME280;65471;55.908;37.880;2023-03-31T12:17:12;98681.22;;;2.01;81.67
76590;BME280;65471;55.908;37.880;2023-03-31T12:19:50;98677.94;;;1.99;81.52
76590;BME280;65471;55.908;37.880;2023-03-31T12:22:41;98678.97;;;1.98;81.67
76590;BME280;65471;55.908;37.880;2023-03-31T12:25:19;98671.78;;;1.99;81.45
76590;BME280;65471;55.908;37.880;2023-03-31T12:27:48;98667.06;;;2.01;81.80
76590;BME280;65471;55.908;37.880;2023-03-31T12:30:34;98668.09;;;2.00;81.58
76590;BME280;65471;55.908;37.880;2023-03-31T12:38:55;98665.66;;;1.98;81.55
76590;BME280;65471;55.908;37.880;2023-03-31T12:41:34;98667.28;;;1.99;81.47
76590;BME280;65471;55.908;37.880;2023-03-31T12:55:30;98650.47;;;1.99;81.76
76590;BME280;65471;55.908;37.880;2023-03-31T13:01:11;98643.28;;;1.99;81.44
76590;BME280;65471;55.908;37.880;2023-03-31T13:09:01;98633.25;;;2.01;82.00
76590;BME280;65471;55.908;37.880;2023-03-31T13:16:43;98640.81;;;1.98;81.26
76590;BME280;65471;55.908;37.880;2023-03-31T13:19:12;98637.94;;;1.99;81.30
76590;BME280;65471;55.908;37.880;2023-03-31T13:21:52;98636.31;;;1.98;81.91
76590;BME280;65471;55.908;37.880;2023-03-31T13:24:20;98634.47;;;1.99;81.14
76590;BME280;65471;55.908;37.880;2023-03-31T13:26:47;98629.97;;;1.93;81.42
76590;BME280;65471;55.908;37.880;2023-03-31T13:35:04;98623.59;;;1.87;81.89
76590;BME280;65471;55.908;37.880;2023-03-31T13:37:57;98620.09;;;1.86;82.04
76590;BME280;65471;55.908;37.880;2023-03-31T13:51:17;98594.28;;;1.80;82.59
76590;BME280;65471;55.908;37.880;2023-03-31T14:05:38;98597.97;;;1.72;83.06
76590;BME280;65471;55.908;37.880;2023-03-31T14:08:46;98609.03;;;1.76;83.01
76590;BME280;65471;55.908;37.880;2023-03-31T14:11:24;98595.47;;;1.71;83.26
76590;BME280;65471;55.908;37.880;2023-03-31T14:13:59;98607.56;;;1.73;83.84
76590;BME280;65471;55.908;37.880;2023-03-31T14:16:28;98596.72;;;1.75;83.21
76590;BME280;65471;55.908;37.880;2023-03-31T14:39:27;98574.38;;;1.63;84.62
76590;BME280;65471;55.908;37.880;2023-03-31T14:41:59;98576.84;;;1.64;83.97
76590;BME280;65471;55.908;37.880;2023-03-31T14:44:28;98566.78;;;1.66;83.85
76590;BME280;65471;55.908;37.880;2023-03-31T14:46:56;98558.78;;;1.66;84.02
76590;BME280;65471;55.908;37.880;2023-03-31T14:49:32;98563.72;;;1.69;84.28
76590;BME280;65471;55.908;37.880;2023-03-31T14:52:03;98574.38;;;1.69;84.19
76590;BME280;65471;55.908;37.880;2023-03-31T14:54:35;98571.09;;;1.67;84.16
76590;BME280;65471;55.908;37.880;2023-03-31T14:57:04;98570.47;;;1.65;83.96
76590;BME280;65471;55.908;37.880;2023-03-31T14:59:33;98569.25;;;1.68;83.89
76590;BME280;65471;55.908;37.880;2023-03-31T15:02:03;98562.09;;;1.68;84.56
76590;BME280;65471;55.908;37.880;2023-03-31T15:04:36;98570.47;;;1.65;83.99
76590;BME280;65471;55.908;37.880;2023-03-31T15:07:11;98570.47;;;1.65;84.29
76590;BME280;65471;55.908;37.880;2023-03-31T15:09:39;98569.84;;;1.63;84.39
76590;BME280;65471;55.908;37.880;2023-03-31T15:12:11;98559.19;;;1.63;84.15
76590;BME280;65471;55.908;37.880;2023-03-31T15:14:45;98570.28;;;1.67;84.73
76590;BME280;65471;55.908;37.880;2023-03-31T15:17:36;98562.47;;;1.65;84.63
76590;BME280;65471;55.908;37.880;2023-03-31T15:22:49;98557.56;;;1.62;84.39
76590;BME280;65471;55.908;37.880;2023-03-31T15:25:17;98566.59;;;1.61;84.32
76590;BME280;65471;55.908;37.880;2023-03-31T15:27:57;98566.97;;;1.58;84.28
76590;BME280;65471;55.908;37.880;2023-03-31T15:30:26;98561.03;;;1.56;85.14
76590;BME280;65471;55.908;37.880;2023-03-31T15:32:54;98570.69;;;1.57;85.00
76590;BME280;65471;55.908;37.880;2023-03-31T15:35:36;98570.47;;;1.52;85.14
76590;BME280;65471;55.908;37.880;2023-03-31T15:38:05;98565.34;;;1.50;84.88
76590;BME280;65471;55.908;37.880;2023-03-31T15:40:36;98558.16;;;1.51;84.93
76590;BME280;65471;55.908;37.880;2023-03-31T15:46:17;98563.09;;;1.54;84.76
76590;BME280;65471;55.908;37.880;2023-03-31T15:48:50;98565.94;;;1.52;84.36
76590;BME280;65471;55.908;37.880;2023-03-31T15:53:52;98569.44;;;1.53;84.98
76590;BME280;65471;55.908;37.880;2023-03-31T15:56:41;98572.91;;;1.53;84.41
76590;BME280;65471;55.908;37.880;2023-03-31T15:59:22;98571.47;;;1.51;85.58
76590;BME280;65471;55.908;37.880;2023-03-31T16:01:57;98570.88;;;1.49;84.65
76590;BME280;65471;55.908;37.880;2023-03-31T16:04:32;98565.53;;;1.49;84.88
76590;BME280;65471;55.908;37.880;2023-03-31T16:07:03;98567.41;;;1.48;85.15
76590;BME280;65471;55.908;37.880;2023-03-31T16:12:28;98563.88;;;1.48;85.06
76590;BME280;65471;55.908;37.880;2023-03-31T16:15:05;98554.66;;;1.44;85.48
76590;BME280;65471;55.908;37.880;2023-03-31T16:17:49;98561.44;;;1.46;85.06
76590;BME280;65471;55.908;37.880;2023-03-31T16:20:34;98562.44;;;1.45;85.78
76590;BME280;65471;55.908;37.880;2023-03-31T16:23:14;98562.66;;;1.44;85.11
76590;BME280;65471;55.908;37.880;2023-03-31T16:25:42;98566.97;;;1.45;85.17